Time;durP1;ratioP1;P1;durP2;ratioP2;P2;SDS_P1;SDS_P2;PMS_P1;PMS_P2;Temp;Humidity;BMP_temperature;BMP_pressure;BME280_temperature;BME280_humidity;BME280_pressure;Samples;Min_cycle;Max_cycle;Signal;HPM_P1;HPM_P2
2023/07/07 01:00:31;;;;;;;10.63;4.45;;;;;12.50;96690.00;;;;8737909;22;20229;-96
2023/07/07 01:09:40;;;;;;;6.53;4.45;;;;;12.30;96700.00;;;;8363844;28;20221;-96
2023/07/07 01:14:03;;;;;;;7.82;4.78;;;;;12.40;96692.00;;;;8360926;28;20278;-96
2023/07/07 01:33:09;;;;;;;7.28;4.57;;;;;12.40;96693.00;;;;8365536;28;20256;-96
2023/07/07 02:06:40;;;;;;;5.87;4.60;;;;;11.70;96690.00;;;;8300585;28;20218;-96
2023/07/07 02:11:09;;;;;;;6.88;5.15;;;;;11.60;96698.00;;;;8302281;28;20214;-96
2023/07/07 02:25:52;;;;;;;8.60;4.63;;;;;11.60;96695.00;;;;8509497;22;20254;-96
2023/07/07 03:58:13;;;;;;;5.87;4.57;;;;;11.80;96731.00;;;;8295188;28;20483;-73
2023/07/07 04:02:21;;;;;;;10.43;5.00;;;;;12.00;96742.00;;;;8312569;28;20638;-74
2023/07/07 04:06:25;;;;;;;7.03;4.45;;;;;12.20;96745.00;;;;8313644;28;20554;-73
2023/07/07 04:10:30;;;;;;;6.27;4.93;;;;;12.50;96746.00;;;;8312783;28;20694;-68
2023/07/07 04:14:38;;;;;;;6.93;4.73;;;;;12.90;96748.00;;;;8310777;28;20210;-67
2023/07/07 04:18:45;;;;;;;5.60;4.20;;;;;13.20;96750.00;;;;8300099;28;20273;-68
2023/07/07 04:22:48;;;;;;;7.55;4.00;;;;;13.70;96758.00;;;;8296305;28;20292;-71
2023/07/07 04:26:52;;;;;;;4.50;3.60;;;;;14.10;96759.00;;;;8308468;28;20205;-71
2023/07/07 04:30:57;;;;;;;5.93;4.00;;;;;14.50;96759.00;;;;8306884;28;20321;-71
2023/07/07 04:35:05;;;;;;;5.25;3.85;;;;;14.90;96762.00;;;;8309047;28;20434;-71
2023/07/07 04:39:08;;;;;;;4.43;3.97;;;;;15.30;96780.00;;;;8311120;28;20287;-71
2023/07/07 04:43:17;;;;;;;4.93;3.85;;;;;15.80;96781.00;;;;8318358;28;20235;-71
2023/07/07 04:47:24;;;;;;;5.28;4.00;;;;;16.20;96787.00;;;;8306484;28;20255;-71
2023/07/07 04:51:29;;;;;;;4.13;3.70;;;;;16.70;96795.00;;;;8309127;28;20233;-71
2023/07/07 04:55:32;;;;;;;5.22;3.92;;;;;17.00;96787.00;;;;8317199;28;20304;-72
2023/07/07 04:59:35;;;;;;;6.65;4.05;;;;;17.20;96799.00;;;;8302482;28;20217;-71
2023/07/07 05:03:40;;;;;;;4.82;4.00;;;;;17.30;96794.00;;;;8305033;28;20285;-71
2023/07/07 05:07:45;;;;;;;13.45;4.22;;;;;17.40;96798.00;;;;8302704;28;20280;-71
2023/07/07 05:11:48;;;;;;;4.75;4.18;;;;;17.70;96804.00;;;;8302438;28;20220;-74
2023/07/07 05:16:06;;;;;;;10.38;4.28;;;;;18.00;96807.00;;;;8300788;28;20292;-72
2023/07/07 05:20:11;;;;;;;5.45;4.18;;;;;18.10;96802.00;;;;8314793;28;20193;-71
2023/07/07 05:24:22;;;;;;;6.68;4.32;;;;;18.10;96803.00;;;;8308493;28;20230;-66
2023/07/07 05:28:25;;;;;;;10.68;4.43;;;;;18.00;96810.00;;;;8314385;28;20908;-66
2023/07/07 05:32:30;;;;;;;11.13;3.88;;;;;18.20;96816.00;;;;8302726;28;20237;-67
2023/07/07 05:36:33;;;;;;;7.80;4.35;;;;;18.50;96804.00;;;;8310286;28;20209;-65
2023/07/07 05:40:40;;;;;;;8.25;4.72;;;;;18.80;96813.00;;;;8299322;28;20332;-67
2023/07/07 05:44:46;;;;;;;7.60;4.55;;;;;19.10;96814.00;;;;8303134;28;20639;-67
2023/07/07 05:48:49;;;;;;;4.95;4.20;;;;;19.60;96820.00;;;;8305697;28;20214;-67
2023/07/07 05:52:52;;;;;;;8.98;4.82;;;;;20.10;96824.00;;;;8310185;28;20233;-68
2023/07/07 05:56:59;;;;;;;7.20;4.35;;;;;20.80;96821.00;;;;8298523;28;20297;-68
2023/07/07 06:01:02;;;;;;;10.55;4.55;;;;;21.60;96833.00;;;;8307906;28;20260;-68
2023/07/07 06:05:07;;;;;;;7.05;3.80;;;;;22.20;96832.00;;;;8304510;28;20293;-68
2023/07/07 06:09:11;;;;;;;11.82;4.13;;;;;22.90;96839.00;;;;8308760;28;20309;-67
2023/07/07 06:13:18;;;;;;;7.15;4.10;;;;;23.60;96839.00;;;;8308757;28;20237;-68
2023/07/07 06:17:24;;;;;;;5.03;4.20;;;;;24.10;96839.00;;;;8305721;28;20711;-66
2023/07/07 06:21:30;;;;;;;6.53;4.38;;;;;24.60;96832.00;;;;8303913;28;20205;-66
2023/07/07 06:25:33;;;;;;;7.78;4.45;;;;;24.90;96846.00;;;;8306956;28;20216;-66
2023/07/07 06:29:38;;;;;;;7.57;4.40;;;;;25.20;96846.00;;;;8306698;28;20206;-66
2023/07/07 06:33:42;;;;;;;9.77;4.20;;;;;25.90;96841.00;;;;8296731;28;20773;-66
2023/07/07 06:37:47;;;;;;;7.30;4.40;;;;;26.50;96846.00;;;;8304010;28;20209;-66
2023/07/07 06:41:52;;;;;;;5.45;3.72;;;;;27.20;96844.00;;;;8298565;28;20224;-65
2023/07/07 06:46:10;;;;;;;4.03;3.60;;;;;27.80;96849.00;;;;8289921;28;20210;-65
2023/07/07 06:50:31;;;;;;;4.88;3.20;;;;;28.00;96862.00;;;;8276816;28;20214;-67
2023/07/07 06:54:36;;;;;;;5.30;3.17;;;;;28.20;96863.00;;;;8307872;28;20241;-67
2023/07/07 06:58:48;;;;;;;3.90;3.13;;;;;28.40;96862.00;;;;8298605;28;20244;-65
2023/07/07 07:02:58;;;;;;;4.25;3.63;;;;;28.80;96866.00;;;;8300584;28;20206;-66
2023/07/07 07:07:03;;;;;;;7.00;4.05;;;;;29.10;96870.00;;;;8304220;28;20205;-67
2023/07/07 07:11:07;;;;;;;3.63;3.17;;;;;29.30;96873.00;;;;8300693;28;20325;-66
2023/07/07 07:15:14;;;;;;;6.63;3.72;;;;;29.60;96870.00;;;;8311919;28;20285;-66
2023/07/07 07:19:23;;;;;;;4.20;3.78;;;;;30.00;96874.00;;;;8308404;28;20205;-70
2023/07/07 07:23:26;;;;;;;5.15;3.30;;;;;30.10;96871.00;;;;8308606;28;20229;-70
2023/07/07 07:27:37;;;;;;;4.20;3.80;;;;;30.40;96872.00;;;;8311913;28;20206;-71
2023/07/07 07:31:42;;;;;;;4.25;3.80;;;;;30.70;96872.00;;;;8295714;28;20292;-71
2023/07/07 07:35:49;;;;;;;5.53;3.72;;;;;31.00;96880.00;;;;8293939;28;20707;-69
2023/07/07 07:39:53;;;;;;;5.38;4.10;;;;;31.10;96879.00;;;;8304179;28;20827;-67
2023/07/07 07:43:58;;;;;;;4.10;3.22;;;;;31.50;96878.00;;;;8306953;28;20213;-68
2023/07/07 07:48:02;;;;;;;5.57;3.60;;;;;31.90;96883.00;;;;8302660;28;20651;-68
2023/07/07 07:52:08;;;;;;;5.13;3.65;;;;;32.40;96888.00;;;;8310915;28;20239;-68
2023/07/07 07:56:11;;;;;;;3.92;3.30;;;;;32.60;96885.00;;;;8303540;28;20293;-67
2023/07/07 08:00:16;;;;;;;5.55;3.58;;;;;32.70;96888.00;;;;8312171;28;20213;-67
2023/07/07 08:04:25;;;;;;;6.15;3.95;;;;;32.70;96896.00;;;;8312461;28;20232;-67
2023/07/07 08:08:31;;;;;;;4.85;3.80;;;;;32.20;96894.00;;;;8304021;28;20285;-67
2023/07/07 08:12:40;;;;;;;3.42;2.95;;;;;32.50;96889.00;;;;8302562;28;20272;-66
2023/07/07 08:16:48;;;;;;;6.72;3.53;;;;;33.20;96894.00;;;;8301689;28;20726;-66
2023/07/07 08:20:53;;;;;;;5.68;3.45;;;;;33.80;96897.00;;;;8309054;28;20630;-68
2023/07/07 08:25:00;;;;;;;4.15;3.22;;;;;34.30;96896.00;;;;8297592;28;20202;-67
2023/07/07 08:29:07;;;;;;;2.95;2.75;;;;;34.60;96902.00;;;;8312913;28;20197;-68
2023/07/07 08:33:10;;;;;;;6.05;3.70;;;;;34.70;96905.00;;;;8302849;28;20230;-67
2023/07/07 08:37:15;;;;;;;3.63;3.28;;;;;34.90;96900.00;;;;8307036;28;20963;-69
2023/07/07 08:41:27;;;;;;;4.13;3.38;;;;;35.00;96905.00;;;;8311219;28;20209;-68
2023/07/07 08:45:30;;;;;;;4.88;3.40;;;;;35.20;96902.00;;;;8312571;28;20217;-68
2023/07/07 08:49:39;;;;;;;3.63;3.33;;;;;35.60;96906.00;;;;8290361;28;20313;-67
2023/07/07 08:53:53;;;;;;;5.25;3.65;;;;;35.80;96921.00;;;;8293015;28;20241;-67
2023/07/07 08:58:07;;;;;;;3.05;2.70;;;;;35.70;96916.00;;;;8302307;28;20214;-68
2023/07/07 09:02:51;;;;;;;3.45;3.15;;;;;35.80;96919.00;;;;8300921;28;20248;-68
2023/07/07 09:07:24;;;;;;;3.63;3.10;;;;;35.60;96911.00;;;;8303412;28;20204;-66
2023/07/07 09:11:41;;;;;;;5.97;3.15;;;;;35.60;96920.00;;;;8300344;28;20673;-67
2023/07/07 09:16:10;;;;;;;3.90;3.08;;;;;35.90;96924.00;;;;8307760;28;20204;-67
2023/07/07 09:20:15;;;;;;;3.50;3.20;;;;;35.80;96911.00;;;;8301636;28;20316;-69
2023/07/07 09:24:26;;;;;;;3.42;3.13;;;;;35.80;96915.00;;;;8301240;28;20211;-68
2023/07/07 09:28:41;;;;;;;2.95;2.75;;;;;35.90;96925.00;;;;8302664;28;20912;-69
2023/07/07 09:32:59;;;;;;;5.75;3.10;;;;;36.30;96914.00;;;;8303570;28;20698;-69
2023/07/07 09:37:13;;;;;;;3.95;3.17;;;;;36.40;96916.00;;;;8302961;28;20267;-70
2023/07/07 09:41:26;;;;;;;3.45;3.15;;;;;36.80;96906.00;;;;8312635;28;20292;-68
2023/07/07 09:45:37;;;;;;;5.20;3.17;;;;;36.60;96915.00;;;;8306119;28;20202;-67
2023/07/07 09:49:46;;;;;;;3.90;2.90;;;;;37.10;96911.00;;;;8298056;28;20209;-69
2023/07/07 09:53:52;;;;;;;4.25;2.95;;;;;37.70;96920.00;;;;8302921;28;20225;-69
2023/07/07 09:58:03;;;;;;;3.17;2.88;;;;;37.40;96919.00;;;;8283840;28;20218;-69
2023/07/07 10:02:13;;;;;;;3.33;3.05;;;;;37.40;96912.00;;;;8297407;28;20401;-68
2023/07/07 10:06:25;;;;;;;3.22;2.97;;;;;37.00;96913.00;;;;8281715;28;20679;-67
2023/07/07 10:10:28;;;;;;;3.28;2.97;;;;;36.80;96910.00;;;;8298898;28;20565;-68
2023/07/07 10:14:35;;;;;;;5.47;3.00;;;;;36.90;96914.00;;;;8297267;28;20230;-67
2023/07/07 10:18:47;;;;;;;3.80;2.80;;;;;37.10;96918.00;;;;8302178;28;20207;-67
2023/07/07 10:23:01;;;;;;;3.08;2.80;;;;;36.20;96910.00;;;;8299756;28;20856;-69
2023/07/07 10:27:15;;;;;;;4.05;3.10;;;;;36.50;96903.00;;;;8296845;28;20209;-68
2023/07/07 10:31:18;;;;;;;4.18;2.75;;;;;36.90;96910.00;;;;8302908;28;20228;-69
2023/07/07 10:35:25;;;;;;;2.85;2.55;;;;;37.60;96905.00;;;;8311445;28;20233;-69
2023/07/07 10:39:35;;;;;;;3.10;2.85;;;;;38.00;96911.00;;;;8297419;28;20205;-68
2023/07/07 10:43:38;;;;;;;2.67;2.47;;;;;38.10;96909.00;;;;8307003;28;21009;-69
2023/07/07 10:47:45;;;;;;;4.75;2.88;;;;;38.10;96909.00;;;;8302782;28;20293;-69
2023/07/07 10:52:09;;;;;;;3.83;2.90;;;;;37.90;96902.00;;;;8299059;28;20229;-68
2023/07/07 10:56:30;;;;;;;5.05;3.00;;;;;38.10;96912.00;;;;8305464;28;20209;-68
2023/07/07 11:00:44;;;;;;;2.95;2.70;;;;;38.60;96908.00;;;;8303121;28;20293;-69
2023/07/07 11:05:21;;;;;;;3.30;2.92;;;;;38.60;96910.00;;;;8285964;28;20205;-70
2023/07/07 11:09:42;;;;;;;3.75;2.65;;;;;38.70;96896.00;;;;8303704;28;20210;-70
2023/07/07 11:14:12;;;;;;;3.17;2.92;;;;;38.40;96900.00;;;;8306737;28;20784;-71
2023/07/07 11:18:33;;;;;;;4.43;2.63;;;;;37.70;96904.00;;;;8302893;28;20602;-68
2023/07/07 11:22:54;;;;;;;2.67;2.45;;;;;37.40;96900.00;;;;8304816;28;20768;-69
2023/07/07 11:27:23;;;;;;;3.92;3.03;;;;;37.50;96893.00;;;;8303549;28;20289;-66
2023/07/07 11:31:55;;;;;;;3.13;2.83;;;;;37.90;96885.00;;;;8303988;28;20292;-70
2023/07/07 11:36:17;;;;;;;2.75;2.55;;;;;38.60;96887.00;;;;8292583;28;20752;-70
2023/07/07 11:40:48;;;;;;;3.60;3.00;;;;;39.00;96883.00;;;;8311065;28;20296;-72
2023/07/07 11:45:03;;;;;;;3.47;2.55;;;;;39.20;96885.00;;;;8286506;28;20285;-72
2023/07/07 11:49:27;;;;;;;3.03;2.70;;;;;39.00;96882.00;;;;8305081;28;20698;-70
2023/07/07 11:53:50;;;;;;;4.07;2.90;;;;;38.40;96886.00;;;;8306615;28;20248;-69
2023/07/07 11:58:04;;;;;;;3.78;2.70;;;;;38.30;96879.00;;;;8304024;28;20646;-70
2023/07/07 12:02:18;;;;;;;3.50;3.05;;;;;37.90;96874.00;;;;8289228;28;20543;-69
2023/07/07 12:06:33;;;;;;;3.40;3.08;;;;;37.90;96873.00;;;;8313273;28;20742;-70
2023/07/07 12:10:43;;;;;;;5.55;3.30;;;;;37.80;96851.00;;;;8311427;28;20300;-67
2023/07/07 12:14:53;;;;;;;2.95;2.75;;;;;37.50;96865.00;;;;8302594;28;20982;-68
2023/07/07 12:19:06;;;;;;;6.28;3.10;;;;;38.10;96866.00;;;;8308713;28;20225;-70
2023/07/07 12:23:16;;;;;;;5.05;3.08;;;;;38.60;96867.00;;;;8311247;28;20208;-68
2023/07/07 12:27:24;;;;;;;3.92;2.90;;;;;38.60;96863.00;;;;8306422;28;20216;-68
2023/07/07 12:31:31;;;;;;;3.78;2.72;;;;;38.20;96864.00;;;;8305767;28;20217;-68
2023/07/07 12:35:47;;;;;;;3.20;2.90;;;;;38.30;96858.00;;;;8312292;28;20241;-68
2023/07/07 12:39:59;;;;;;;2.42;2.33;;;;;37.90;96856.00;;;;8290751;28;20902;-68
2023/07/07 12:44:08;;;;;;;4.28;3.33;;;;;37.80;96854.00;;;;8308064;28;20225;-69
2023/07/07 12:48:18;;;;;;;5.05;2.80;;;;;37.50;96854.00;;;;8307277;28;20289;-68
2023/07/07 12:52:25;;;;;;;4.68;3.05;;;;;36.60;96856.00;;;;8307786;28;20272;-68
2023/07/07 12:56:37;;;;;;;4.78;2.92;;;;;35.90;96846.00;;;;8302357;28;20229;-69
2023/07/07 13:00:44;;;;;;;3.20;2.90;;;;;35.60;96840.00;;;;8309273;28;20252;-68
2023/07/07 13:04:53;;;;;;;4.15;2.63;;;;;35.50;96824.00;;;;8301476;28;21165;-70
2023/07/07 13:09:16;;;;;;;3.58;2.83;;;;;35.00;96840.00;;;;8306475;28;20293;-69
2023/07/07 13:13:29;;;;;;;4.22;2.97;;;;;35.30;96827.00;;;;8304417;28;20234;-69
2023/07/07 13:17:32;;;;;;;4.20;3.00;;;;;35.60;96833.00;;;;8308563;28;20205;-71
2023/07/07 13:21:43;;;;;;;8.57;3.00;;;;;36.50;96829.00;;;;8307109;28;20293;-68
2023/07/07 13:25:50;;;;;;;4.85;3.28;;;;;37.50;96834.00;;;;8302050;28;20202;-70
2023/07/07 13:30:01;;;;;;;5.00;3.00;;;;;37.90;96831.00;;;;8304879;28;20551;-69
2023/07/07 13:34:13;;;;;;;8.98;2.88;;;;;38.30;96834.00;;;;8304499;28;20276;-71
2023/07/07 13:38:31;;;;;;;5.90;2.92;;;;;38.20;96833.00;;;;8311949;28;20208;-70
2023/07/07 13:42:36;;;;;;;3.20;2.90;;;;;38.30;96824.00;;;;8295645;28;20833;-70
2023/07/07 13:46:45;;;;;;;3.63;3.10;;;;;38.70;96820.00;;;;8309081;28;20209;-70
2023/07/07 13:50:48;;;;;;;3.28;2.97;;;;;38.80;96826.00;;;;8305802;28;20252;-75
2023/07/07 13:54:52;;;;;;;3.08;2.88;;;;;39.20;96825.00;;;;8289179;28;21582;-74
2023/07/07 13:59:02;;;;;;;3.53;3.22;;;;;39.20;96807.00;;;;8290890;28;20236;-66
2023/07/07 14:03:17;;;;;;;4.10;3.05;;;;;37.90;96812.00;;;;8298460;28;20644;-70
2023/07/07 14:07:23;;;;;;;3.67;3.22;;;;;37.30;96815.00;;;;8301277;28;20318;-69
2023/07/07 14:11:30;;;;;;;3.20;2.90;;;;;37.60;96817.00;;;;8307411;28;20236;-70
2023/07/07 14:15:39;;;;;;;3.08;2.80;;;;;38.10;96817.00;;;;8312348;28;20268;-69
2023/07/07 14:19:52;;;;;;;7.45;3.20;;;;;38.50;96806.00;;;;8312919;28;20205;-68
2023/07/07 14:23:56;;;;;;;4.13;3.30;;;;;38.90;96809.00;;;;8306299;28;20256;-68
2023/07/07 14:28:01;;;;;;;3.40;3.10;;;;;38.90;96809.00;;;;8314665;28;20202;-67
2023/07/07 14:32:12;;;;;;;5.55;3.28;;;;;39.20;96808.00;;;;8315503;28;20253;-69
2023/07/07 14:36:22;;;;;;;3.63;2.97;;;;;39.50;96790.00;;;;8307309;28;20237;-67
2023/07/07 14:40:28;;;;;;;4.60;3.25;;;;;38.70;96793.00;;;;8311038;28;20980;-69
2023/07/07 14:44:45;;;;;;;4.53;3.30;;;;;38.00;96790.00;;;;8314739;28;20229;-68
2023/07/07 14:48:53;;;;;;;5.38;2.92;;;;;38.20;96786.00;;;;8314465;28;20284;-68
2023/07/07 14:53:00;;;;;;;3.20;2.90;;;;;38.40;96787.00;;;;8313632;28;20281;-69
2023/07/07 14:57:10;;;;;;;4.03;3.13;;;;;38.50;96781.00;;;;8308795;28;20230;-68
2023/07/07 15:01:19;;;;;;;5.22;3.17;;;;;38.90;96777.00;;;;8310951;28;20322;-68
2023/07/07 15:05:31;;;;;;;3.47;3.00;;;;;39.20;96775.00;;;;8315512;28;20209;-68
2023/07/07 15:09:37;;;;;;;6.05;3.20;;;;;38.70;96776.00;;;;8289727;28;20213;-69
2023/07/07 15:13:41;;;;;;;3.50;3.20;;;;;38.40;96776.00;;;;8317300;28;20798;-67
2023/07/07 15:17:44;;;;;;;4.22;3.17;;;;;38.40;96783.00;;;;8291880;28;20197;-68
2023/07/07 15:21:50;;;;;;;3.75;3.35;;;;;38.70;96771.00;;;;8302070;28;20239;-68
2023/07/07 15:25:55;;;;;;;3.28;2.97;;;;;38.70;96775.00;;;;8306588;28;20228;-69
2023/07/07 15:30:01;;;;;;;3.47;3.17;;;;;38.80;96768.00;;;;8303731;28;20566;-68
2023/07/07 15:34:06;;;;;;;3.80;3.13;;;;;39.20;96765.00;;;;8303335;28;20309;-69
2023/07/07 15:38:54;;;;;;;4.10;3.03;;;;;39.30;96766.00;;;;8310847;28;20821;-70
2023/07/07 15:42:58;;;;;;;3.80;3.28;;;;;39.10;96763.00;;;;8307002;28;20217;-68
2023/07/07 15:47:01;;;;;;;3.88;3.58;;;;;39.10;96757.00;;;;8306433;28;20288;-69
2023/07/07 15:51:05;;;;;;;3.78;3.45;;;;;39.10;96759.00;;;;8319433;28;20212;-68
2023/07/07 15:55:08;;;;;;;4.90;3.30;;;;;38.90;96744.00;;;;8316434;28;20228;-69
2023/07/07 15:59:20;;;;;;;4.93;3.20;;;;;38.60;96753.00;;;;8315852;28;20214;-66
2023/07/07 16:03:27;;;;;;;3.35;3.15;;;;;37.90;96744.00;;;;8317173;28;20256;-67
2023/07/07 16:07:32;;;;;;;3.58;3.28;;;;;37.80;96747.00;;;;8315459;28;20201;-66
2023/07/07 16:11:37;;;;;;;3.60;3.30;;;;;37.80;96747.00;;;;8316331;28;20205;-68
2023/07/07 16:15:46;;;;;;;3.53;3.22;;;;;37.90;96741.00;;;;8323094;28;20232;-68
2023/07/07 16:19:54;;;;;;;3.47;3.17;;;;;37.80;96742.00;;;;8319989;28;20194;-69
2023/07/07 16:23:57;;;;;;;5.38;3.65;;;;;37.60;96745.00;;;;8313250;28;20244;-67
2023/07/07 16:28:02;;;;;;;6.03;2.97;;;;;37.40;96733.00;;;;8310456;28;20575;-67
2023/07/07 16:32:09;;;;;;;6.25;3.15;;;;;37.30;96733.00;;;;8303591;28;20225;-67
2023/07/07 16:36:20;;;;;;;5.10;3.63;;;;;36.80;96735.00;;;;8320483;28;20240;-68
2023/07/07 16:40:27;;;;;;;4.35;3.40;;;;;36.80;96735.00;;;;8312197;28;20296;-66
2023/07/07 16:44:32;;;;;;;4.15;3.40;;;;;37.20;96724.00;;;;8319154;28;20245;-70
2023/07/07 16:48:38;;;;;;;3.88;3.45;;;;;37.20;96725.00;;;;8316403;28;20213;-70
2023/07/07 16:52:50;;;;;;;9.02;3.88;;;;;37.60;96728.00;;;;8321643;28;20202;-70
2023/07/07 16:56:55;;;;;;;3.47;3.17;;;;;37.60;96730.00;;;;8313106;28;20679;-68
2023/07/07 17:00:58;;;;;;;3.42;2.97;;;;;37.20;96733.00;;;;8319254;28;20209;-68
2023/07/07 17:05:06;;;;;;;5.22;3.22;;;;;37.10;96730.00;;;;8317940;28;20205;-70
2023/07/07 17:09:12;;;;;;;3.65;3.35;;;;;37.20;96729.00;;;;8305716;28;20241;-70
2023/07/07 17:13:16;;;;;;;3.90;3.38;;;;;37.40;96732.00;;;;8305979;28;20214;-72
2023/07/07 17:17:19;;;;;;;5.80;3.67;;;;;37.40;96731.00;;;;8318378;28;20611;-71
2023/07/07 17:21:30;;;;;;;5.68;3.28;;;;;37.20;96734.00;;;;8311154;28;20209;-70
2023/07/07 17:25:35;;;;;;;6.07;3.75;;;;;37.10;96736.00;;;;8292015;28;20213;-67
2023/07/07 17:29:41;;;;;;;4.03;3.50;;;;;37.00;96733.00;;;;8306291;28;20198;-69
2023/07/07 17:33:44;;;;;;;4.65;3.33;;;;;37.10;96742.00;;;;8307840;28;20226;-69
2023/07/07 17:37:51;;;;;;;7.50;3.55;;;;;37.20;96742.00;;;;8301669;28;20236;-70
2023/07/07 17:41:57;;;;;;;5.90;3.40;;;;;37.20;96744.00;;;;8311986;28;20229;-68
2023/07/07 17:46:01;;;;;;;4.03;3.50;;;;;37.20;96740.00;;;;8309118;28;20569;-70
2023/07/07 17:50:15;;;;;;;3.90;3.60;;;;;37.00;96741.00;;;;8299904;28;20293;-73
2023/07/07 17:54:21;;;;;;;3.30;3.10;;;;;36.90;96745.00;;;;8311783;28;20236;-71
2023/07/07 17:58:32;;;;;;;4.28;3.08;;;;;36.70;96746.00;;;;8302429;28;20253;-70
2023/07/07 18:02:38;;;;;;;4.70;3.58;;;;;35.80;96732.00;;;;8311442;28;20233;-74
2023/07/07 18:06:48;;;;;;;3.53;3.10;;;;;34.70;96736.00;;;;8312148;28;20203;-74
2023/07/07 18:10:53;;;;;;;4.03;3.30;;;;;33.70;96745.00;;;;8307656;28;20266;-73
2023/07/07 18:14:59;;;;;;;5.70;3.28;;;;;32.80;96746.00;;;;8307087;28;20324;-73
2023/07/07 18:19:11;;;;;;;3.30;3.00;;;;;32.00;96741.00;;;;8307260;28;20205;-73
2023/07/07 18:23:38;;;;;;;7.53;3.45;;;;;31.30;96741.00;;;;8306147;28;20263;-71
2023/07/07 18:27:43;;;;;;;3.95;3.50;;;;;30.60;96742.00;;;;8305070;28;20761;-75
2023/07/07 18:31:47;;;;;;;5.22;3.95;;;;;30.00;96735.00;;;;8305034;28;21072;-76
2023/07/07 18:35:53;;;;;;;5.43;3.83;;;;;29.40;96735.00;;;;8307611;28;20249;-72
2023/07/07 18:40:00;;;;;;;4.93;3.53;;;;;28.90;96734.00;;;;8308766;28;20202;-75
2023/07/07 18:44:06;;;;;;;4.35;3.80;;;;;28.40;96740.00;;;;8302307;28;20199;-72
2023/07/07 18:48:14;;;;;;;6.68;3.67;;;;;27.80;96742.00;;;;8311196;28;20862;-76
2023/07/07 18:52:18;;;;;;;4.63;3.90;;;;;27.10;96745.00;;;;8313848;28;20201;-75
2023/07/07 18:56:24;;;;;;;5.60;3.95;;;;;26.50;96734.00;;;;8302926;28;20591;-74
2023/07/07 19:00:40;;;;;;;6.45;3.20;;;;;25.90;96735.00;;;;8307553;28;20205;-75
2023/07/07 19:04:44;;;;;;;7.47;3.60;;;;;25.30;96735.00;;;;8288639;28;20320;-75
2023/07/07 19:08:50;;;;;;;6.55;3.38;;;;;24.80;96739.00;;;;8310115;28;20205;-74
2023/07/07 19:12:53;;;;;;;5.32;3.45;;;;;24.30;96741.00;;;;8309575;28;20285;-74
2023/07/07 19:17:01;;;;;;;4.28;3.47;;;;;23.80;96742.00;;;;8316598;28;20239;-71
2023/07/07 19:21:05;;;;;;;4.03;3.55;;;;;23.40;96741.00;;;;8311464;28;20201;-73
2023/07/07 19:25:11;;;;;;;5.72;3.35;;;;;23.10;96742.00;;;;8309475;28;20706;-72
2023/07/07 19:29:14;;;;;;;4.20;3.55;;;;;22.80;96734.00;;;;8321556;28;20209;-72
2023/07/07 19:33:20;;;;;;;5.03;3.28;;;;;22.80;96735.00;;;;8308656;28;20221;-74
2023/07/07 19:37:23;;;;;;;8.55;3.70;;;;;22.60;96743.00;;;;8309211;28;20708;-72
2023/07/07 19:41:29;;;;;;;4.43;3.13;;;;;22.50;96736.00;;;;8314855;28;20240;-74
2023/07/07 19:45:33;;;;;;;5.50;3.53;;;;;22.30;96744.00;;;;8316014;28;20232;-74
2023/07/07 19:49:38;;;;;;;4.57;3.38;;;;;22.30;96736.00;;;;8318347;28;20208;-74
2023/07/07 19:53:42;;;;;;;5.72;3.63;;;;;22.20;96733.00;;;;8317203;28;20647;-73
2023/07/07 19:57:46;;;;;;;4.55;3.33;;;;;22.00;96734.00;;;;8311760;28;20225;-73
2023/07/07 20:01:49;;;;;;;5.63;3.72;;;;;21.90;96727.00;;;;8314975;28;20316;-70
2023/07/07 20:05:55;;;;;;;4.50;3.45;;;;;21.70;96730.00;;;;8306793;28;20296;-73
2023/07/07 20:10:09;;;;;;;8.13;3.50;;;;;21.40;96729.00;;;;8308836;28;20202;-74
2023/07/07 20:14:12;;;;;;;8.32;3.75;;;;;21.30;96734.00;;;;8311127;28;20248;-74
2023/07/07 20:18:18;;;;;;;11.40;3.83;;;;;21.10;96736.00;;;;8305347;28;20241;-72
2023/07/07 20:22:22;;;;;;;5.78;4.13;;;;;20.90;96734.00;;;;8313499;28;20214;-73
2023/07/07 20:26:26;;;;;;;4.65;3.40;;;;;20.80;96732.00;;;;8318493;28;20304;-73
2023/07/07 20:30:29;;;;;;;8.63;3.60;;;;;20.70;96735.00;;;;8311323;28;20284;-74
2023/07/07 20:34:35;;;;;;;8.18;4.20;;;;;20.80;96735.00;;;;8315590;28;20229;-73
2023/07/07 20:38:40;;;;;;;5.43;3.60;;;;;20.80;96729.00;;;;8302066;28;20243;-73
2023/07/07 20:42:44;;;;;;;4.15;3.15;;;;;20.70;96730.00;;;;8303994;28;21788;-72
2023/07/07 20:46:47;;;;;;;5.53;3.72;;;;;20.60;96745.00;;;;8301553;28;20362;-73
2023/07/07 20:50:54;;;;;;;7.63;3.92;;;;;20.40;96739.00;;;;8304685;28;20267;-72
2023/07/07 20:54:58;;;;;;;7.57;3.88;;;;;20.30;96740.00;;;;8305733;28;20212;-72
2023/07/07 20:59:03;;;;;;;5.13;3.47;;;;;20.00;96743.00;;;;8304637;28;20722;-73
2023/07/07 21:03:17;;;;;;;6.45;4.47;;;;;19.60;96742.00;;;;8303136;28;20213;-72
2023/07/07 21:07:22;;;;;;;5.63;4.32;;;;;19.50;96731.00;;;;8307690;28;20225;-71
2023/07/07 21:11:27;;;;;;;8.88;4.00;;;;;19.10;96722.00;;;;8307823;28;20206;-72
2023/07/07 21:15:31;;;;;;;6.18;3.92;;;;;18.90;96730.00;;;;8314878;28;20212;-73
2023/07/07 21:19:34;;;;;;;7.93;3.90;;;;;18.80;96733.00;;;;8313883;28;20233;-73
2023/07/07 21:23:40;;;;;;;8.23;3.90;;;;;18.60;96744.00;;;;8308902;28;20201;-72
2023/07/07 21:27:44;;;;;;;5.72;3.90;;;;;18.60;96733.00;;;;8308537;28;20312;-72
2023/07/07 21:31:50;;;;;;;6.18;3.90;;;;;18.50;96722.00;;;;8305286;28;20309;-72
2023/07/07 21:35:53;;;;;;;5.22;4.15;;;;;18.30;96728.00;;;;8301305;28;20558;-72
2023/07/07 21:39:56;;;;;;;6.63;3.88;;;;;18.10;96717.00;;;;8300153;28;21465;-73
2023/07/07 21:44:01;;;;;;;7.28;4.32;;;;;18.10;96722.00;;;;8307188;28;20720;-72
2023/07/07 21:48:08;;;;;;;6.35;3.90;;;;;18.20;96716.00;;;;8310086;28;20527;-72
2023/07/07 21:52:14;;;;;;;8.15;3.83;;;;;18.20;96715.00;;;;8302547;28;20220;-72
2023/07/07 21:56:24;;;;;;;5.78;3.83;;;;;18.30;96717.00;;;;8295052;28;22362;-71
2023/07/07 22:00:32;;;;;;;5.53;3.97;;;;;18.30;96718.00;;;;8304404;28;20293;-73
2023/07/07 22:04:35;;;;;;;6.07;4.30;;;;;18.20;96717.00;;;;8311396;28;20293;-73
2023/07/07 22:08:39;;;;;;;7.78;4.32;;;;;18.10;96721.00;;;;8307678;28;20205;-74
2023/07/07 22:12:47;;;;;;;5.20;3.85;;;;;17.90;96711.00;;;;8294580;28;20316;-74
2023/07/07 22:16:56;;;;;;;9.40;4.35;;;;;17.70;96714.00;;;;8300106;28;20691;-71
2023/07/07 22:21:01;;;;;;;11.32;5.32;;;;;17.60;96720.00;;;;8316318;28;20197;-75
2023/07/07 22:25:06;;;;;;;5.95;4.32;;;;;17.50;96727.00;;;;8309625;28;20599;-70
2023/07/07 22:29:16;;;;;;;5.90;4.20;;;;;17.40;96724.00;;;;8315564;28;20221;-69
2023/07/07 22:33:20;;;;;;;6.53;4.40;;;;;17.20;96723.00;;;;8313026;28;20290;-71
2023/07/07 22:37:27;;;;;;;7.40;4.38;;;;;17.10;96725.00;;;;8316674;28;20229;-76
2023/07/07 22:41:32;;;;;;;6.55;4.30;;;;;16.90;96724.00;;;;8310276;28;20225;-74
2023/07/07 22:45:38;;;;;;;7.40;4.70;;;;;16.80;96724.00;;;;8308051;28;20317;-73
2023/07/07 22:49:42;;;;;;;6.43;4.10;;;;;16.60;96722.00;;;;8308740;28;20631;-71
2023/07/07 22:53:48;;;;;;;6.53;4.43;;;;;16.50;96726.00;;;;8313934;28;20691;-74
2023/07/07 22:57:56;;;;;;;6.90;4.43;;;;;16.50;96724.00;;;;8308365;28;20851;-75
2023/07/07 23:01:59;;;;;;;6.22;4.47;;;;;16.40;96735.00;;;;8303484;28;20678;-73
2023/07/07 23:06:04;;;;;;;7.35;4.25;;;;;16.30;96736.00;;;;8313827;28;20198;-72
2023/07/07 23:10:15;;;;;;;6.97;4.72;;;;;16.20;96726.00;;;;8298735;28;20316;-71
2023/07/07 23:14:18;;;;;;;10.32;4.53;;;;;16.00;96722.00;;;;8311519;28;20641;-71
2023/07/07 23:18:22;;;;;;;7.25;4.97;;;;;15.80;96727.00;;;;8310505;28;20252;-70
2023/07/07 23:22:28;;;;;;;5.78;4.40;;;;;15.80;96717.00;;;;8308317;28;20268;-71
2023/07/07 23:26:32;;;;;;;6.57;4.65;;;;;15.80;96716.00;;;;8311630;28;20208;-72
2023/07/07 23:30:40;;;;;;;7.95;4.85;;;;;15.70;96706.00;;;;8301593;28;20615;-72
2023/07/07 23:34:43;;;;;;;9.98;4.80;;;;;15.50;96709.00;;;;8302114;28;20229;-72
2023/07/07 23:38:49;;;;;;;7.93;5.20;;;;;15.40;96710.00;;;;8311398;28;20233;-72
2023/07/07 23:42:56;;;;;;;7.70;4.70;;;;;15.30;96709.00;;;;8307287;28;20194;-72
2023/07/07 23:47:02;;;;;;;7.10;4.70;;;;;15.30;96706.00;;;;8303931;28;20297;-71
2023/07/07 23:51:09;;;;;;;8.20;4.40;;;;;15.30;96699.00;;;;8311902;28;20285;-70
2023/07/07 23:55:16;;;;;;;7.03;4.60;;;;;15.30;96693.00;;;;8277665;28;20205;-71
2023/07/07 23:59:19;;;;;;;8.10;4.28;;;;;15.50;96691.00;;;;8300090;28;20698;-73
